»·PEaware :: AAL1097 KLAS-KABQ

AAL1097 :: KLAS-KABQ

FLIGHT INFORMATION

Flight Status: Arrived
Operator:
American Airlines
More flights by this operator :: More flights under this callsign
Pilot: Adam A. (5112)
Aircraft: BOEING 767-300
(B763)
More flights by this aircraft type
Origin: KLAS McCarran Intl
United States
Destination: KABQ Albuquerque Intl Sunport
United States
More flights between these airports :: More routes between these airports
Route: +COWBY6 GUP LOWBO3
File this flight plan on PilotEdge
Remarks:
Altitude:
(Current/Filed)
29,000ft
Speed:
(Current/Filed)
450kts
Departed: 17-Jan-16 07:16 PM
Arrived: 17-Jan-16 08:33 PM
Distance/Time
Traveled:
421nm/1:16
Distance/Time
To Go:
Arrived

Flight Plot

Page will automatically refresh every two minutes.


Map Options




Map Legend


Flown Route
Filed Route
Departure Airport
Arrival Airport
Navaid (VOR, NDB)
Fix

Horizontal Profiles

Position Reports

Time Latitude Longitude Heading Altitude Ground
Speed
17-Jan-16 18:29 36.082813 -115.153396 100 2192ft 0kts
17-Jan-16 18:30 36.082813 -115.153396 100 2192ft 0kts
17-Jan-16 18:31 36.082813 -115.153396 100 2192ft 0kts
17-Jan-16 18:32 36.082813 -115.153396 100 2192ft 0kts
17-Jan-16 18:33 36.082813 -115.153396 100 2192ft 0kts
17-Jan-16 18:34 36.082813 -115.153396 100 2192ft 0kts
17-Jan-16 18:35 36.082813 -115.153396 100 2192ft 0kts
17-Jan-16 18:36 36.082813 -115.153396 100 2192ft 0kts
17-Jan-16 18:37 36.082813 -115.153396 100 2192ft 0kts
17-Jan-16 18:38 36.082813 -115.153396 100 2192ft 0kts
17-Jan-16 18:39 36.082813 -115.153396 100 2192ft 0kts
17-Jan-16 18:40 36.082813 -115.153396 100 2192ft 0kts
17-Jan-16 18:41 36.082813 -115.153396 100 2192ft 0kts
17-Jan-16 18:42 36.082813 -115.153396 100 2192ft 0kts
17-Jan-16 18:43 36.082813 -115.153396 100 2192ft 0kts
17-Jan-16 18:44 36.082813 -115.153396 100 2192ft 0kts
17-Jan-16 18:45 36.082813 -115.153396 100 2192ft 0kts
17-Jan-16 18:46 36.082813 -115.153396 100 2192ft 0kts
17-Jan-16 18:47 36.082813 -115.153396 100 2192ft 0kts
17-Jan-16 18:48 36.082813 -115.153396 100 2192ft 0kts
17-Jan-16 18:49 36.082813 -115.153396 100 2192ft 0kts
17-Jan-16 18:50 36.082813 -115.153396 100 2192ft 0kts
17-Jan-16 18:51 36.082813 -115.153396 100 2192ft 0kts
17-Jan-16 18:52 36.082813 -115.153396 100 2192ft 0kts
17-Jan-16 18:53 36.082813 -115.153396 100 2192ft 0kts
17-Jan-16 18:54 36.082813 -115.153396 100 2192ft 0kts
17-Jan-16 18:55 36.082813 -115.153396 100 2192ft 0kts
17-Jan-16 18:56 36.082813 -115.153396 100 2192ft 0kts
17-Jan-16 18:57 36.082882 -115.153636 128 2192ft 2kts
17-Jan-16 18:58 36.083123 -115.153817 162 2192ft 0kts
17-Jan-16 18:59 36.083123 -115.153817 162 2192ft 0kts
17-Jan-16 19:00 36.083123 -115.153817 162 2192ft 0kts
17-Jan-16 19:01 36.083123 -115.153817 162 2192ft 0kts
17-Jan-16 19:02 36.083123 -115.153817 162 2192ft 0kts
17-Jan-16 19:03 36.083123 -115.153817 162 2192ft 0kts
17-Jan-16 19:04 36.083123 -115.153817 162 2192ft 0kts
17-Jan-16 19:05 36.082672 -115.153887 227 2192ft 7kts
17-Jan-16 19:06 36.081475 -115.154844 169 2192ft 23kts
17-Jan-16 19:07 36.078028 -115.155354 271 2192ft 19kts
17-Jan-16 19:08 36.077854 -115.162987 227 2192ft 20kts
17-Jan-16 19:09 36.073914 -115.165993 268 2192ft 1kts
17-Jan-16 19:10 36.073921 -115.166092 277 2192ft 0kts
17-Jan-16 19:11 36.079703 -115.164337 23 2192ft 106kts
17-Jan-16 19:12 36.121616 -115.131583 67 3974ft 226kts
17-Jan-16 19:13 36.126730 -115.046432 79 7056ft 264kts
17-Jan-16 19:14 36.139535 -114.951913 77 10256ft 299kts
17-Jan-16 19:15 36.157158 -114.836013 79 12534ft 374kts
17-Jan-16 19:16 36.176141 -114.706522 95 15979ft 395kts
17-Jan-16 19:17 36.117771 -114.596437 148 18934ft 402kts
17-Jan-16 19:18 36.028270 -114.509063 131 21641ft 428kts
17-Jan-16 19:19 35.988483 -114.368590 94 24035ft 452kts
17-Jan-16 19:20 35.969048 -114.211890 99 26243ft 470kts
17-Jan-16 19:21 35.945632 -114.052377 99 28259ft 485kts
17-Jan-16 19:22 35.921228 -113.889471 100 29250ft 482kts
17-Jan-16 19:23 35.896314 -113.727859 100 29253ft 483kts
17-Jan-16 19:24 35.870604 -113.565648 98 29256ft 479kts
17-Jan-16 19:25 35.845051 -113.405802 97 29258ft 474kts
17-Jan-16 19:26 35.819300 -113.246172 97 29263ft 474kts
17-Jan-16 19:27 35.793530 -113.087885 97 29322ft 471kts
17-Jan-16 19:28 35.767537 -112.929590 97 29349ft 470kts
17-Jan-16 19:29 35.746442 -112.799621 98 30082ft 470kts
17-Jan-16 19:30 35.720235 -112.641895 98 30913ft 469kts
17-Jan-16 19:31 35.693629 -112.483597 98 31343ft 480kts
17-Jan-16 19:32 35.666452 -112.323506 98 31336ft 479kts
17-Jan-16 19:33 35.638604 -112.160671 98 31364ft 496kts
17-Jan-16 19:34 35.610026 -111.995203 98 31358ft 495kts
17-Jan-16 19:35 35.591515 -111.836800 87 31366ft 489kts
17-Jan-16 19:36 35.586959 -111.669361 87 31350ft 493kts
17-Jan-16 19:37 35.582014 -111.500406 87 31342ft 495kts
17-Jan-16 19:38 35.576832 -111.331639 87 31342ft 494kts
17-Jan-16 19:39 35.571434 -111.163519 87 31311ft 491kts
17-Jan-16 19:40 35.565846 -110.996438 87 31300ft 490kts
17-Jan-16 19:41 35.560360 -110.830399 87 31295ft 488kts
17-Jan-16 19:42 35.554590 -110.666119 85 31299ft 473kts
17-Jan-16 19:43 35.548663 -110.506531 84 31301ft 469kts
17-Jan-16 19:44 35.542464 -110.346965 84 31301ft 469kts
17-Jan-16 19:45 35.536072 -110.187954 84 31302ft 469kts
17-Jan-16 19:46 35.529426 -110.027912 84 31314ft 469kts
17-Jan-16 19:47 35.522686 -109.868371 84 31327ft 470kts
17-Jan-16 19:48 35.516042 -109.708300 85 31327ft 470kts
17-Jan-16 19:49 35.508777 -109.548057 85 31328ft 470kts
17-Jan-16 19:50 35.501244 -109.387273 85 30974ft 471kts
17-Jan-16 19:51 35.493536 -109.227286 85 30049ft 472kts
17-Jan-16 19:52 35.485597 -109.067159 85 29114ft 467kts
17-Jan-16 19:53 35.477566 -108.909086 85 28168ft 461kts
17-Jan-16 19:54 35.478139 -108.754952 80 27212ft 449kts
17-Jan-16 19:55 35.482161 -108.602897 81 26257ft 444kts
17-Jan-16 19:56 35.485288 -108.451955 81 25410ft 431kts
17-Jan-16 19:57 35.483962 -108.310801 87 25287ft 418kts
17-Jan-16 19:58 35.474798 -108.168711 86 25341ft 417kts
17-Jan-16 19:59 35.465363 -108.026301 87 24774ft 419kts
17-Jan-16 20:00 35.455891 -107.886050 86 23318ft 406kts
17-Jan-16 20:01 35.447469 -107.751624 85 21621ft 392kts
17-Jan-16 20:02 35.439225 -107.619083 86 19452ft 386kts
17-Jan-16 20:03 35.430918 -107.488507 87 17149ft 384kts
17-Jan-16 20:04 35.419592 -107.362049 102 16541ft 379kts
17-Jan-16 20:05 35.364015 -107.248430 117 14942ft 383kts
17-Jan-16 20:06 35.308431 -107.139832 117 12745ft 366kts
17-Jan-16 20:07 35.242340 -107.047322 133 10918ft 352kts
17-Jan-16 20:08 35.174155 -106.970577 133 8967ft 304kts
17-Jan-16 20:09 35.118491 -106.904356 131 9000ft 258kts
17-Jan-16 20:10 35.053930 -106.868966 161 9007ft 259kts
17-Jan-16 20:11 34.995069 -106.821009 128 9008ft 254kts
17-Jan-16 20:12 34.947244 -106.757467 128 9004ft 254kts
17-Jan-16 20:13 34.927094 -106.686264 44 9020ft 216kts
17-Jan-16 20:14 34.965630 -106.704100 273 9042ft 219kts
17-Jan-16 20:15 34.955788 -106.778604 268 9004ft 222kts
17-Jan-16 20:16 34.945635 -106.851426 268 9004ft 222kts
17-Jan-16 20:17 34.935294 -106.925797 268 9006ft 222kts
17-Jan-16 20:18 34.925742 -107.000150 283 9006ft 215kts
17-Jan-16 20:19 34.968445 -107.028230 358 8509ft 207kts
17-Jan-16 20:20 35.022055 -107.013780 30 8523ft 185kts
17-Jan-16 20:21 35.044713 -106.955632 85 8265ft 221kts
17-Jan-16 20:22 35.045297 -106.893834 82 7940ft 217kts
17-Jan-16 20:23 35.045244 -106.823483 82 7029ft 176kts
17-Jan-16 20:24 35.044222 -106.766215 87 6423ft 187kts
17-Jan-16 20:25 35.042194 -106.707916 79 6514ft 161kts
17-Jan-16 20:26 35.044277 -106.653550 82 6021ft 160kts
17-Jan-16 20:27 35.044303 -106.603569 87 5365ft 78kts
17-Jan-16 20:28 35.045787 -106.589077 90 5365ft 11kts
17-Jan-16 20:29 35.045827 -106.591343 270 5365ft 21kts
17-Jan-16 20:30 35.045737 -106.600230 269 5365ft 37kts
17-Jan-16 20:31 35.045803 -106.612203 270 5365ft 23kts
17-Jan-16 20:32 35.046786 -106.616927 12 5365ft 7kts
17-Jan-16 20:33 35.046857 -106.616905 16 5365ft 0kts
17-Jan-16 20:34 35.046857 -106.616905 16 5365ft 0kts
17-Jan-16 20:35 35.046857 -106.616905 16 5365ft 0kts

Navigation Log

Ident Type
Flight plan parsing failed, navigation log unavailable